sensor_id;sensor_type;location;lat;lon;timestamp;temperature;humidity
14172;DHT22;7165;52.388;4.928;2023-06-14T00:01:09;18.70;99.90
14172;DHT22;7165;52.388;4.928;2023-06-14T00:03:38;18.60;99.90
14172;DHT22;7165;52.388;4.928;2023-06-14T00:06:05;18.60;99.90
14172;DHT22;7165;52.388;4.928;2023-06-14T00:08:31;18.50;99.90
14172;DHT22;7165;52.388;4.928;2023-06-14T00:10:58;18.50;99.90
14172;DHT22;7165;52.388;4.928;2023-06-14T00:13:26;18.40;99.90
14172;DHT22;7165;52.388;4.928;2023-06-14T00:15:53;18.40;99.90
14172;DHT22;7165;52.388;4.928;2023-06-14T00:18:20;18.30;99.90
14172;DHT22;7165;52.388;4.928;2023-06-14T00:20:49;18.20;99.90
14172;DHT22;7165;52.388;4.928;2023-06-14T00:23:16;18.20;99.90
14172;DHT22;7165;52.388;4.928;2023-06-14T00:25:43;18.20;99.90
14172;DHT22;7165;52.388;4.928;2023-06-14T00:28:09;18.10;99.90
14172;DHT22;7165;52.388;4.928;2023-06-14T00:30:37;18.10;99.90
14172;DHT22;7165;52.388;4.928;2023-06-14T00:33:04;18.00;99.90
14172;DHT22;7165;52.388;4.928;2023-06-14T00:35:30;17.90;99.90
14172;DHT22;7165;52.388;4.928;2023-06-14T00:37:57;17.90;99.90
14172;DHT22;7165;52.388;4.928;2023-06-14T00:40:24;17.80;99.90
14172;DHT22;7165;52.388;4.928;2023-06-14T00:42:51;17.80;99.90
14172;DHT22;7165;52.388;4.928;2023-06-14T00:45:17;17.80;99.90
14172;DHT22;7165;52.388;4.928;2023-06-14T00:47:45;17.80;99.90
14172;DHT22;7165;52.388;4.928;2023-06-14T00:50:12;17.80;99.90
14172;DHT22;7165;52.388;4.928;2023-06-14T00:52:39;17.80;99.90
14172;DHT22;7165;52.388;4.928;2023-06-14T00:55:06;17.80;99.90
14172;DHT22;7165;52.388;4.928;2023-06-14T00:57:32;17.80;99.90
14172;DHT22;7165;52.388;4.928;2023-06-14T01:00:03;17.70;99.90
14172;DHT22;7165;52.388;4.928;2023-06-14T01:02:34;17.70;99.90
14172;DHT22;7165;52.388;4.928;2023-06-14T01:05:03;17.70;99.90
14172;DHT22;7165;52.388;4.928;2023-06-14T01:07:33;17.60;99.90
14172;DHT22;7165;52.388;4.928;2023-06-14T01:10:04;17.60;99.90
14172;DHT22;7165;52.388;4.928;2023-06-14T01:12:35;17.50;99.90
14172;DHT22;7165;52.388;4.928;2023-06-14T01:15:03;17.40;99.90
14172;DHT22;7165;52.388;4.928;2023-06-14T01:17:30;17.40;99.90
14172;DHT22;7165;52.388;4.928;2023-06-14T01:19:58;17.30;99.90
14172;DHT22;7165;52.388;4.928;2023-06-14T01:22:26;17.30;99.90
14172;DHT22;7165;52.388;4.928;2023-06-14T01:24:55;17.30;99.90
14172;DHT22;7165;52.388;4.928;2023-06-14T01:27:22;17.30;99.90
14172;DHT22;7165;52.388;4.928;2023-06-14T01:29:49;17.30;99.90
14172;DHT22;7165;52.388;4.928;2023-06-14T01:32:16;17.30;99.90
14172;DHT22;7165;52.388;4.928;2023-06-14T01:34:43;17.30;99.90
14172;DHT22;7165;52.388;4.928;2023-06-14T01:37:10;17.30;99.90
14172;DHT22;7165;52.388;4.928;2023-06-14T01:39:37;17.30;99.90
14172;DHT22;7165;52.388;4.928;2023-06-14T01:42:05;17.30;99.90
14172;DHT22;7165;52.388;4.928;2023-06-14T01:44:32;17.30;99.90
14172;DHT22;7165;52.388;4.928;2023-06-14T01:46:59;17.30;99.90
14172;DHT22;7165;52.388;4.928;2023-06-14T01:49:26;17.30;99.90
14172;DHT22;7165;52.388;4.928;2023-06-14T01:51:52;17.20;99.90
14172;DHT22;7165;52.388;4.928;2023-06-14T01:54:19;17.20;99.90
14172;DHT22;7165;52.388;4.928;2023-06-14T01:56:47;17.10;99.90
14172;DHT22;7165;52.388;4.928;2023-06-14T01:59:14;17.10;99.90
14172;DHT22;7165;52.388;4.928;2023-06-14T02:01:41;17.10;99.90
14172;DHT22;7165;52.388;4.928;2023-06-14T02:04:08;17.10;99.90
14172;DHT22;7165;52.388;4.928;2023-06-14T02:06:34;17.10;99.90
14172;DHT22;7165;52.388;4.928;2023-06-14T02:09:01;17.10;99.90
14172;DHT22;7165;52.388;4.928;2023-06-14T02:11:28;17.00;99.90
14172;DHT22;7165;52.388;4.928;2023-06-14T02:13:55;17.00;99.90
14172;DHT22;7165;52.388;4.928;2023-06-14T02:16:23;17.00;99.90
14172;DHT22;7165;52.388;4.928;2023-06-14T02:18:50;17.00;99.90
14172;DHT22;7165;52.388;4.928;2023-06-14T02:21:16;17.00;99.90
14172;DHT22;7165;52.388;4.928;2023-06-14T02:23:43;17.00;99.90
14172;DHT22;7165;52.388;4.928;2023-06-14T02:26:10;17.00;99.90
14172;DHT22;7165;52.388;4.928;2023-06-14T02:28:36;17.00;99.90
14172;DHT22;7165;52.388;4.928;2023-06-14T02:31:03;17.00;99.90
14172;DHT22;7165;52.388;4.928;2023-06-14T02:33:31;17.00;99.90
14172;DHT22;7165;52.388;4.928;2023-06-14T02:35:57;17.00;99.90
14172;DHT22;7165;52.388;4.928;2023-06-14T02:38:24;17.00;99.90
14172;DHT22;7165;52.388;4.928;2023-06-14T02:40:50;17.00;99.90
14172;DHT22;7165;52.388;4.928;2023-06-14T02:43:17;17.00;99.90
14172;DHT22;7165;52.388;4.928;2023-06-14T02:45:43;17.00;99.90
14172;DHT22;7165;52.388;4.928;2023-06-14T02:48:10;17.00;99.90
14172;DHT22;7165;52.388;4.928;2023-06-14T02:50:38;16.90;99.90
14172;DHT22;7165;52.388;4.928;2023-06-14T02:53:05;16.90;99.90
14172;DHT22;7165;52.388;4.928;2023-06-14T02:55:31;16.90;99.90
14172;DHT22;7165;52.388;4.928;2023-06-14T02:57:58;16.90;99.90
14172;DHT22;7165;52.388;4.928;2023-06-14T03:00:25;16.90;99.90
14172;DHT22;7165;52.388;4.928;2023-06-14T03:02:51;16.90;99.90
14172;DHT22;7165;52.388;4.928;2023-06-14T03:05:19;16.90;99.90
14172;DHT22;7165;52.388;4.928;2023-06-14T03:07:48;16.90;99.90
14172;DHT22;7165;52.388;4.928;2023-06-14T03:10:15;16.80;99.90
14172;DHT22;7165;52.388;4.928;2023-06-14T03:12:42;16.80;99.90
14172;DHT22;7165;52.388;4.928;2023-06-14T03:15:09;16.80;99.90
14172;DHT22;7165;52.388;4.928;2023-06-14T03:17:36;16.80;99.90
14172;DHT22;7165;52.388;4.928;2023-06-14T03:20:04;16.70;99.90
14172;DHT22;7165;52.388;4.928;2023-06-14T03:22:31;16.70;99.90
14172;DHT22;7165;52.388;4.928;2023-06-14T03:25:00;16.70;99.90
14172;DHT22;7165;52.388;4.928;2023-06-14T03:27:29;16.70;99.90
14172;DHT22;7165;52.388;4.928;2023-06-14T03:29:56;16.70;99.90
14172;DHT22;7165;52.388;4.928;2023-06-14T03:32:22;16.60;99.90
14172;DHT22;7165;52.388;4.928;2023-06-14T03:34:49;16.60;99.90
14172;DHT22;7165;52.388;4.928;2023-06-14T03:37:16;16.50;99.90
14172;DHT22;7165;52.388;4.928;2023-06-14T03:39:42;16.50;99.90
14172;DHT22;7165;52.388;4.928;2023-06-14T03:42:13;16.50;99.90
14172;DHT22;7165;52.388;4.928;2023-06-14T03:44:40;16.50;99.90
14172;DHT22;7165;52.388;4.928;2023-06-14T03:47:07;16.50;99.90
14172;DHT22;7165;52.388;4.928;2023-06-14T03:49:34;16.50;99.90
14172;DHT22;7165;52.388;4.928;2023-06-14T03:52:00;16.50;99.90
14172;DHT22;7165;52.388;4.928;2023-06-14T03:54:27;16.40;99.90
14172;DHT22;7165;52.388;4.928;2023-06-14T03:56:54;16.50;99.90
14172;DHT22;7165;52.388;4.928;2023-06-14T03:59:23;16.40;99.90
14172;DHT22;7165;52.388;4.928;2023-06-14T04:01:51;16.40;99.90
14172;DHT22;7165;52.388;4.928;2023-06-14T04:04:18;16.40;99.90
14172;DHT22;7165;52.388;4.928;2023-06-14T04:06:46;16.40;99.90
14172;DHT22;7165;52.388;4.928;2023-06-14T04:09:13;16.40;99.90
14172;DHT22;7165;52.388;4.928;2023-06-14T04:11:40;16.40;99.90
14172;DHT22;7165;52.388;4.928;2023-06-14T04:14:06;16.30;99.90
14172;DHT22;7165;52.388;4.928;2023-06-14T04:16:34;16.30;99.90
14172;DHT22;7165;52.388;4.928;2023-06-14T04:19:01;16.30;99.90
14172;DHT22;7165;52.388;4.928;2023-06-14T04:21:27;16.40;99.90
14172;DHT22;7165;52.388;4.928;2023-06-14T04:23:54;16.40;99.90
14172;DHT22;7165;52.388;4.928;2023-06-14T04:26:21;16.30;99.90
14172;DHT22;7165;52.388;4.928;2023-06-14T04:28:49;16.40;99.90
14172;DHT22;7165;52.388;4.928;2023-06-14T04:31:16;16.40;99.90
14172;DHT22;7165;52.388;4.928;2023-06-14T04:33:44;16.40;99.90
14172;DHT22;7165;52.388;4.928;2023-06-14T04:36:12;16.40;99.90
14172;DHT22;7165;52.388;4.928;2023-06-14T04:38:38;16.40;99.90
14172;DHT22;7165;52.388;4.928;2023-06-14T04:41:06;16.50;99.90
14172;DHT22;7165;52.388;4.928;2023-06-14T04:43:36;16.50;99.90
14172;DHT22;7165;52.388;4.928;2023-06-14T04:46:03;16.60;99.90
14172;DHT22;7165;52.388;4.928;2023-06-14T04:48:31;16.60;99.90
14172;DHT22;7165;52.388;4.928;2023-06-14T04:50:59;16.60;99.90
14172;DHT22;7165;52.388;4.928;2023-06-14T04:53:25;16.70;99.90
14172;DHT22;7165;52.388;4.928;2023-06-14T04:55:54;16.80;99.90
14172;DHT22;7165;52.388;4.928;2023-06-14T04:58:21;16.80;99.90
14172;DHT22;7165;52.388;4.928;2023-06-14T05:00:47;16.90;99.90
14172;DHT22;7165;52.388;4.928;2023-06-14T05:03:14;16.90;99.90
14172;DHT22;7165;52.388;4.928;2023-06-14T05:05:41;16.90;99.90
14172;DHT22;7165;52.388;4.928;2023-06-14T05:08:09;17.00;99.90
14172;DHT22;7165;52.388;4.928;2023-06-14T05:10:35;17.00;99.90
14172;DHT22;7165;52.388;4.928;2023-06-14T05:13:02;17.10;99.90
14172;DHT22;7165;52.388;4.928;2023-06-14T05:15:28;17.20;99.90
14172;DHT22;7165;52.388;4.928;2023-06-14T05:17:55;17.30;99.90
14172;DHT22;7165;52.388;4.928;2023-06-14T05:20:22;17.30;99.90
14172;DHT22;7165;52.388;4.928;2023-06-14T05:22:50;17.30;99.90
14172;DHT22;7165;52.388;4.928;2023-06-14T05:25:18;17.40;99.90
14172;DHT22;7165;52.388;4.928;2023-06-14T05:27:45;17.40;99.90
14172;DHT22;7165;52.388;4.928;2023-06-14T05:30:12;17.50;99.90
14172;DHT22;7165;52.388;4.928;2023-06-14T05:32:39;17.60;99.90
14172;DHT22;7165;52.388;4.928;2023-06-14T05:35:06;17.70;99.90
14172;DHT22;7165;52.388;4.928;2023-06-14T05:37:32;17.70;99.90
14172;DHT22;7165;52.388;4.928;2023-06-14T05:39:59;17.80;99.90
14172;DHT22;7165;52.388;4.928;2023-06-14T05:42:27;17.80;99.90
14172;DHT22;7165;52.388;4.928;2023-06-14T05:44:53;17.90;99.90
14172;DHT22;7165;52.388;4.928;2023-06-14T05:47:20;17.90;99.90
14172;DHT22;7165;52.388;4.928;2023-06-14T05:49:47;18.00;99.90
14172;DHT22;7165;52.388;4.928;2023-06-14T05:52:14;18.10;99.90
14172;DHT22;7165;52.388;4.928;2023-06-14T05:54:40;18.10;99.90
14172;DHT22;7165;52.388;4.928;2023-06-14T05:57:07;18.20;99.90
14172;DHT22;7165;52.388;4.928;2023-06-14T05:59:35;18.20;99.90
14172;DHT22;7165;52.388;4.928;2023-06-14T06:02:01;18.30;99.90
14172;DHT22;7165;52.388;4.928;2023-06-14T06:04:28;18.40;99.90
14172;DHT22;7165;52.388;4.928;2023-06-14T06:06:54;18.50;99.90
14172;DHT22;7165;52.388;4.928;2023-06-14T06:09:21;18.50;99.90
14172;DHT22;7165;52.388;4.928;2023-06-14T06:11:47;18.60;99.90
14172;DHT22;7165;52.388;4.928;2023-06-14T06:14:14;18.60;99.90
14172;DHT22;7165;52.388;4.928;2023-06-14T06:16:42;18.70;99.90
14172;DHT22;7165;52.388;4.928;2023-06-14T06:19:08;18.80;99.90
14172;DHT22;7165;52.388;4.928;2023-06-14T06:21:35;19.00;99.90
14172;DHT22;7165;52.388;4.928;2023-06-14T06:24:02;19.00;99.90
14172;DHT22;7165;52.388;4.928;2023-06-14T06:26:30;19.20;99.90
14172;DHT22;7165;52.388;4.928;2023-06-14T06:28:57;19.30;99.90
14172;DHT22;7165;52.388;4.928;2023-06-14T06:31:23;19.30;99.90
14172;DHT22;7165;52.388;4.928;2023-06-14T06:33:54;19.50;99.90
14172;DHT22;7165;52.388;4.928;2023-06-14T06:36:20;19.50;99.90
14172;DHT22;7165;52.388;4.928;2023-06-14T06:38:47;19.60;99.90
14172;DHT22;7165;52.388;4.928;2023-06-14T06:41:14;19.80;99.90
14172;DHT22;7165;52.388;4.928;2023-06-14T06:43:41;19.80;99.90
14172;DHT22;7165;52.388;4.928;2023-06-14T06:46:07;20.00;99.90
14172;DHT22;7165;52.388;4.928;2023-06-14T06:48:34;20.10;99.90
14172;DHT22;7165;52.388;4.928;2023-06-14T06:51:02;20.20;99.90
14172;DHT22;7165;52.388;4.928;2023-06-14T06:53:28;20.30;99.90
14172;DHT22;7165;52.388;4.928;2023-06-14T06:55:55;20.40;99.90
14172;DHT22;7165;52.388;4.928;2023-06-14T06:58:21;20.40;99.90
14172;DHT22;7165;52.388;4.928;2023-06-14T07:00:48;20.60;99.90
14172;DHT22;7165;52.388;4.928;2023-06-14T07:03:15;20.60;99.90
14172;DHT22;7165;52.388;4.928;2023-06-14T07:05:41;20.60;99.90
14172;DHT22;7165;52.388;4.928;2023-06-14T07:08:09;20.60;99.90
14172;DHT22;7165;52.388;4.928;2023-06-14T07:10:36;20.70;99.90
14172;DHT22;7165;52.388;4.928;2023-06-14T07:13:02;20.80;99.90
14172;DHT22;7165;52.388;4.928;2023-06-14T07:15:30;20.90;99.90
14172;DHT22;7165;52.388;4.928;2023-06-14T07:17:57;20.90;99.90
14172;DHT22;7165;52.388;4.928;2023-06-14T07:20:24;21.00;99.90
14172;DHT22;7165;52.388;4.928;2023-06-14T07:22:51;21.10;99.90
14172;DHT22;7165;52.388;4.928;2023-06-14T07:25:19;21.30;99.90
14172;DHT22;7165;52.388;4.928;2023-06-14T07:27:47;21.40;99.90
14172;DHT22;7165;52.388;4.928;2023-06-14T07:30:14;21.60;99.90
14172;DHT22;7165;52.388;4.928;2023-06-14T07:32:40;21.60;99.90
14172;DHT22;7165;52.388;4.928;2023-06-14T07:35:07;21.70;99.90
14172;DHT22;7165;52.388;4.928;2023-06-14T07:37:33;21.80;99.90
14172;DHT22;7165;52.388;4.928;2023-06-14T07:40:00;21.90;99.90
14172;DHT22;7165;52.388;4.928;2023-06-14T07:42:31;22.00;99.90
14172;DHT22;7165;52.388;4.928;2023-06-14T07:44:57;22.10;99.90
14172;DHT22;7165;52.388;4.928;2023-06-14T07:47:24;22.10;99.90
14172;DHT22;7165;52.388;4.928;2023-06-14T07:49:50;22.30;99.90
14172;DHT22;7165;52.388;4.928;2023-06-14T07:52:17;22.50;99.90
14172;DHT22;7165;52.388;4.928;2023-06-14T07:54:43;22.60;99.90
14172;DHT22;7165;52.388;4.928;2023-06-14T07:57:10;22.60;99.90
14172;DHT22;7165;52.388;4.928;2023-06-14T07:59:38;22.70;99.90
14172;DHT22;7165;52.388;4.928;2023-06-14T08:02:05;22.90;99.90
14172;DHT22;7165;52.388;4.928;2023-06-14T08:04:31;23.00;99.90
14172;DHT22;7165;52.388;4.928;2023-06-14T08:06:58;23.10;99.90
14172;DHT22;7165;52.388;4.928;2023-06-14T08:09:25;23.20;99.90
14172;DHT22;7165;52.388;4.928;2023-06-14T08:11:53;23.20;99.90
14172;DHT22;7165;52.388;4.928;2023-06-14T08:14:19;23.40;99.90
14172;DHT22;7165;52.388;4.928;2023-06-14T08:16:47;23.50;99.90
14172;DHT22;7165;52.388;4.928;2023-06-14T08:19:14;23.70;99.90
14172;DHT22;7165;52.388;4.928;2023-06-14T08:21:42;23.80;99.90
14172;DHT22;7165;52.388;4.928;2023-06-14T08:24:10;23.90;99.90
14172;DHT22;7165;52.388;4.928;2023-06-14T08:26:37;23.90;99.90
14172;DHT22;7165;52.388;4.928;2023-06-14T08:29:04;23.90;99.90
14172;DHT22;7165;52.388;4.928;2023-06-14T08:31:32;24.00;99.90
14172;DHT22;7165;52.388;4.928;2023-06-14T08:34:00;24.10;99.90
14172;DHT22;7165;52.388;4.928;2023-06-14T08:36:27;24.20;99.90
14172;DHT22;7165;52.388;4.928;2023-06-14T08:38:53;24.30;99.90
14172;DHT22;7165;52.388;4.928;2023-06-14T08:41:22;24.40;99.90
14172;DHT22;7165;52.388;4.928;2023-06-14T08:43:50;24.60;99.90
14172;DHT22;7165;52.388;4.928;2023-06-14T08:46:17;24.80;99.90
14172;DHT22;7165;52.388;4.928;2023-06-14T08:48:46;25.10;99.40
14172;DHT22;7165;52.388;4.928;2023-06-14T08:51:16;25.40;99.90
14172;DHT22;7165;52.388;4.928;2023-06-14T08:53:44;25.50;97.40
14172;DHT22;7165;52.388;4.928;2023-06-14T08:56:11;25.50;98.50
14172;DHT22;7165;52.388;4.928;2023-06-14T08:58:40;25.40;97.20
14172;DHT22;7165;52.388;4.928;2023-06-14T09:01:09;25.50;98.20
14172;DHT22;7165;52.388;4.928;2023-06-14T09:03:37;25.70;97.30
14172;DHT22;7165;52.388;4.928;2023-06-14T09:06:06;25.80;95.50
14172;DHT22;7165;52.388;4.928;2023-06-14T09:08:35;25.70;95.80
14172;DHT22;7165;52.388;4.928;2023-06-14T09:11:05;25.60;96.20
14172;DHT22;7165;52.388;4.928;2023-06-14T09:13:32;25.50;96.50
14172;DHT22;7165;52.388;4.928;2023-06-14T09:15:59;25.40;94.30
14172;DHT22;7165;52.388;4.928;2023-06-14T09:18:34;25.40;95.50
14172;DHT22;7165;52.388;4.928;2023-06-14T09:21:01;25.40;94.80
14172;DHT22;7165;52.388;4.928;2023-06-14T09:23:28;25.50;95.50
14172;DHT22;7165;52.388;4.928;2023-06-14T09:25:56;25.60;95.30
14172;DHT22;7165;52.388;4.928;2023-06-14T09:28:27;25.70;94.40
14172;DHT22;7165;52.388;4.928;2023-06-14T09:30:54;25.70;95.30
14172;DHT22;7165;52.388;4.928;2023-06-14T09:33:21;25.80;94.70
14172;DHT22;7165;52.388;4.928;2023-06-14T09:35:51;25.90;95.10
14172;DHT22;7165;52.388;4.928;2023-06-14T09:38:18;26.10;95.70
14172;DHT22;7165;52.388;4.928;2023-06-14T09:40:44;26.30;93.70
14172;DHT22;7165;52.388;4.928;2023-06-14T09:43:13;26.30;92.50
14172;DHT22;7165;52.388;4.928;2023-06-14T09:45:40;26.30;92.60
14172;DHT22;7165;52.388;4.928;2023-06-14T09:48:06;26.20;92.60
14172;DHT22;7165;52.388;4.928;2023-06-14T09:50:34;26.30;93.30
14172;DHT22;7165;52.388;4.928;2023-06-14T09:53:05;26.40;92.90
14172;DHT22;7165;52.388;4.928;2023-06-14T09:55:34;26.60;92.30
14172;DHT22;7165;52.388;4.928;2023-06-14T09:58:05;26.50;90.90
14172;DHT22;7165;52.388;4.928;2023-06-14T10:00:34;26.40;91.80
14172;DHT22;7165;52.388;4.928;2023-06-14T10:03:05;26.40;90.90
14172;DHT22;7165;52.388;4.928;2023-06-14T10:05:35;26.40;91.50
14172;DHT22;7165;52.388;4.928;2023-06-14T10:08:05;26.40;91.50
14172;DHT22;7165;52.388;4.928;2023-06-14T10:10:34;26.50;90.60
14172;DHT22;7165;52.388;4.928;2023-06-14T10:13:01;26.40;90.80
14172;DHT22;7165;52.388;4.928;2023-06-14T10:15:35;26.50;91.70
14172;DHT22;7165;52.388;4.928;2023-06-14T10:18:10;26.50;91.50
14172;DHT22;7165;52.388;4.928;2023-06-14T10:20:45;26.40;92.20
14172;DHT22;7165;52.388;4.928;2023-06-14T10:23:18;26.50;91.40
14172;DHT22;7165;52.388;4.928;2023-06-14T10:25:49;26.60;91.90
14172;DHT22;7165;52.388;4.928;2023-06-14T10:28:18;26.80;92.00
14172;DHT22;7165;52.388;4.928;2023-06-14T10:31:04;26.90;91.10
14172;DHT22;7165;52.388;4.928;2023-06-14T10:33:31;27.00;93.00
14172;DHT22;7165;52.388;4.928;2023-06-14T10:36:24;27.10;91.70
14172;DHT22;7165;52.388;4.928;2023-06-14T10:39:01;27.20;90.10
14172;DHT22;7165;52.388;4.928;2023-06-14T10:41:28;27.20;91.00
14172;DHT22;7165;52.388;4.928;2023-06-14T10:44:33;27.20;91.10
14172;DHT22;7165;52.388;4.928;2023-06-14T10:47:07;27.30;90.40
14172;DHT22;7165;52.388;4.928;2023-06-14T10:49:42;27.20;89.40
14172;DHT22;7165;52.388;4.928;2023-06-14T10:52:12;27.10;91.00
14172;DHT22;7165;52.388;4.928;2023-06-14T10:54:56;27.20;87.80
14172;DHT22;7165;52.388;4.928;2023-06-14T10:57:22;27.10;90.00
14172;DHT22;7165;52.388;4.928;2023-06-14T10:59:50;27.10;90.00
14172;DHT22;7165;52.388;4.928;2023-06-14T11:02:48;27.30;89.90
14172;DHT22;7165;52.388;4.928;2023-06-14T11:05:16;27.40;89.40
14172;DHT22;7165;52.388;4.928;2023-06-14T11:08:07;27.40;87.50
14172;DHT22;7165;52.388;4.928;2023-06-14T11:10:41;27.30;88.40
14172;DHT22;7165;52.388;4.928;2023-06-14T11:13:08;27.30;88.50
14172;DHT22;7165;52.388;4.928;2023-06-14T11:15:36;27.20;89.60
14172;DHT22;7165;52.388;4.928;2023-06-14T11:18:05;27.30;90.40
14172;DHT22;7165;52.388;4.928;2023-06-14T11:20:33;27.40;88.00
14172;DHT22;7165;52.388;4.928;2023-06-14T11:23:01;27.20;89.60
14172;DHT22;7165;52.388;4.928;2023-06-14T11:25:28;27.10;89.20
14172;DHT22;7165;52.388;4.928;2023-06-14T11:27:55;27.00;87.60
14172;DHT22;7165;52.388;4.928;2023-06-14T11:30:22;27.00;90.40
14172;DHT22;7165;52.388;4.928;2023-06-14T11:32:51;27.00;91.20
14172;DHT22;7165;52.388;4.928;2023-06-14T11:35:22;27.20;90.80
14172;DHT22;7165;52.388;4.928;2023-06-14T11:37:49;27.20;90.70
14172;DHT22;7165;52.388;4.928;2023-06-14T11:40:19;27.30;89.50
14172;DHT22;7165;52.388;4.928;2023-06-14T11:42:46;27.00;87.80
14172;DHT22;7165;52.388;4.928;2023-06-14T11:45:13;27.00;89.30
14172;DHT22;7165;52.388;4.928;2023-06-14T11:47:39;27.10;90.20
14172;DHT22;7165;52.388;4.928;2023-06-14T11:50:09;27.10;91.10
14172;DHT22;7165;52.388;4.928;2023-06-14T11:52:37;27.20;90.90
14172;DHT22;7165;52.388;4.928;2023-06-14T11:55:05;27.30;88.80
14172;DHT22;7165;52.388;4.928;2023-06-14T11:57:34;27.20;90.00
14172;DHT22;7165;52.388;4.928;2023-06-14T12:00:04;27.10;89.80
14172;DHT22;7165;52.388;4.928;2023-06-14T12:02:33;27.00;90.10
14172;DHT22;7165;52.388;4.928;2023-06-14T12:05:04;26.80;90.00
14172;DHT22;7165;52.388;4.928;2023-06-14T12:07:31;26.80;90.00
14172;DHT22;7165;52.388;4.928;2023-06-14T12:10:07;27.00;89.70
14172;DHT22;7165;52.388;4.928;2023-06-14T12:12:36;27.10;91.30
14172;DHT22;7165;52.388;4.928;2023-06-14T12:15:04;27.20;89.40
14172;DHT22;7165;52.388;4.928;2023-06-14T12:17:32;27.20;91.20
14172;DHT22;7165;52.388;4.928;2023-06-14T12:19:59;27.30;90.40
14172;DHT22;7165;52.388;4.928;2023-06-14T12:22:31;27.30;87.90
14172;DHT22;7165;52.388;4.928;2023-06-14T12:24:58;27.10;88.30
14172;DHT22;7165;52.388;4.928;2023-06-14T12:27:26;27.10;88.50
14172;DHT22;7165;52.388;4.928;2023-06-14T12:29:59;27.00;88.50
14172;DHT22;7165;52.388;4.928;2023-06-14T12:32:26;26.90;87.10
14172;DHT22;7165;52.388;4.928;2023-06-14T12:34:53;26.80;88.50
14172;DHT22;7165;52.388;4.928;2023-06-14T12:37:19;27.00;90.00
14172;DHT22;7165;52.388;4.928;2023-06-14T12:39:47;27.00;88.80
14172;DHT22;7165;52.388;4.928;2023-06-14T12:42:13;26.90;87.70
14172;DHT22;7165;52.388;4.928;2023-06-14T12:44:42;26.90;89.80
14172;DHT22;7165;52.388;4.928;2023-06-14T12:47:09;27.00;89.50
14172;DHT22;7165;52.388;4.928;2023-06-14T12:49:35;27.00;88.10
14172;DHT22;7165;52.388;4.928;2023-06-14T12:52:02;26.90;89.00
14172;DHT22;7165;52.388;4.928;2023-06-14T12:54:29;26.80;87.90
14172;DHT22;7165;52.388;4.928;2023-06-14T12:56:55;26.80;86.90
14172;DHT22;7165;52.388;4.928;2023-06-14T12:59:22;27.00;89.20
14172;DHT22;7165;52.388;4.928;2023-06-14T13:01:50;27.10;86.60
14172;DHT22;7165;52.388;4.928;2023-06-14T13:04:18;27.00;87.20
14172;DHT22;7165;52.388;4.928;2023-06-14T13:06:45;27.00;86.40
14172;DHT22;7165;52.388;4.928;2023-06-14T13:09:13;27.00;86.80
14172;DHT22;7165;52.388;4.928;2023-06-14T13:11:40;27.00;86.40
14172;DHT22;7165;52.388;4.928;2023-06-14T13:14:11;27.00;87.50
14172;DHT22;7165;52.388;4.928;2023-06-14T13:16:37;27.20;86.90
14172;DHT22;7165;52.388;4.928;2023-06-14T13:19:05;27.10;85.60
14172;DHT22;7165;52.388;4.928;2023-06-14T13:21:32;27.10;85.00
14172;DHT22;7165;52.388;4.928;2023-06-14T13:23:59;27.10;84.90
14172;DHT22;7165;52.388;4.928;2023-06-14T13:26:26;27.00;84.10
14172;DHT22;7165;52.388;4.928;2023-06-14T13:28:52;26.90;85.50
14172;DHT22;7165;52.388;4.928;2023-06-14T13:31:19;27.00;85.60
14172;DHT22;7165;52.388;4.928;2023-06-14T13:33:46;27.00;86.80
14172;DHT22;7165;52.388;4.928;2023-06-14T13:36:14;27.00;84.50
14172;DHT22;7165;52.388;4.928;2023-06-14T13:38:41;26.90;86.90
14172;DHT22;7165;52.388;4.928;2023-06-14T13:41:08;27.10;86.90
14172;DHT22;7165;52.388;4.928;2023-06-14T13:43:35;27.20;84.50
14172;DHT22;7165;52.388;4.928;2023-06-14T13:46:01;27.30;85.70
14172;DHT22;7165;52.388;4.928;2023-06-14T13:48:28;27.50;84.90
14172;DHT22;7165;52.388;4.928;2023-06-14T13:50:54;27.70;83.70
14172;DHT22;7165;52.388;4.928;2023-06-14T13:53:23;27.70;84.10
14172;DHT22;7165;52.388;4.928;2023-06-14T13:55:50;27.70;82.50
14172;DHT22;7165;52.388;4.928;2023-06-14T13:58:18;27.80;83.70
14172;DHT22;7165;52.388;4.928;2023-06-14T14:00:45;27.80;84.50
14172;DHT22;7165;52.388;4.928;2023-06-14T14:03:11;27.70;83.80
14172;DHT22;7165;52.388;4.928;2023-06-14T14:05:38;27.50;86.10
14172;DHT22;7165;52.388;4.928;2023-06-14T14:08:05;27.50;84.80
14172;DHT22;7165;52.388;4.928;2023-06-14T14:10:33;27.50;84.40
14172;DHT22;7165;52.388;4.928;2023-06-14T14:12:59;27.50;84.50
14172;DHT22;7165;52.388;4.928;2023-06-14T14:15:27;27.50;82.80
14172;DHT22;7165;52.388;4.928;2023-06-14T14:17:53;27.40;80.00
14172;DHT22;7165;52.388;4.928;2023-06-14T14:20:22;27.30;82.80
14172;DHT22;7165;52.388;4.928;2023-06-14T14:22:49;27.30;83.50
14172;DHT22;7165;52.388;4.928;2023-06-14T14:25:16;27.40;84.80
14172;DHT22;7165;52.388;4.928;2023-06-14T14:27:44;27.60;84.30
14172;DHT22;7165;52.388;4.928;2023-06-14T14:30:11;27.80;87.30
14172;DHT22;7165;52.388;4.928;2023-06-14T14:32:39;28.10;81.50
14172;DHT22;7165;52.388;4.928;2023-06-14T14:35:07;28.10;82.10
14172;DHT22;7165;52.388;4.928;2023-06-14T14:37:34;28.10;81.50
14172;DHT22;7165;52.388;4.928;2023-06-14T14:40:01;28.20;83.70
14172;DHT22;7165;52.388;4.928;2023-06-14T14:42:29;28.10;80.80
14172;DHT22;7165;52.388;4.928;2023-06-14T14:44:57;28.10;82.50
14172;DHT22;7165;52.388;4.928;2023-06-14T14:47:23;28.30;79.70
14172;DHT22;7165;52.388;4.928;2023-06-14T14:49:50;28.30;80.30
14172;DHT22;7165;52.388;4.928;2023-06-14T14:52:17;28.00;79.40
14172;DHT22;7165;52.388;4.928;2023-06-14T14:54:43;28.00;80.20
14172;DHT22;7165;52.388;4.928;2023-06-14T14:57:10;28.00;80.40
14172;DHT22;7165;52.388;4.928;2023-06-14T14:59:36;28.10;82.10
14172;DHT22;7165;52.388;4.928;2023-06-14T15:02:05;28.10;80.90
14172;DHT22;7165;52.388;4.928;2023-06-14T15:04:31;28.20;81.00
14172;DHT22;7165;52.388;4.928;2023-06-14T15:06:58;28.20;79.90
14172;DHT22;7165;52.388;4.928;2023-06-14T15:09:25;28.30;79.10
14172;DHT22;7165;52.388;4.928;2023-06-14T15:11:51;28.40;79.10
14172;DHT22;7165;52.388;4.928;2023-06-14T15:14:18;28.60;77.70
14172;DHT22;7165;52.388;4.928;2023-06-14T15:16:45;28.90;78.90
14172;DHT22;7165;52.388;4.928;2023-06-14T15:19:13;29.30;77.80
14172;DHT22;7165;52.388;4.928;2023-06-14T15:21:39;29.70;76.00
14172;DHT22;7165;52.388;4.928;2023-06-14T15:24:07;29.90;77.40
14172;DHT22;7165;52.388;4.928;2023-06-14T15:26:34;30.30;77.10
14172;DHT22;7165;52.388;4.928;2023-06-14T15:29:00;32.30;75.50
14172;DHT22;7165;52.388;4.928;2023-06-14T15:31:27;34.20;70.30
14172;DHT22;7165;52.388;4.928;2023-06-14T15:33:54;35.60;67.60
14172;DHT22;7165;52.388;4.928;2023-06-14T15:36:22;36.70;64.10
14172;DHT22;7165;52.388;4.928;2023-06-14T15:38:49;37.80;62.60
14172;DHT22;7165;52.388;4.928;2023-06-14T15:41:15;38.30;59.60
14172;DHT22;7165;52.388;4.928;2023-06-14T15:43:42;39.00;58.30
14172;DHT22;7165;52.388;4.928;2023-06-14T15:46:09;38.50;57.90
14172;DHT22;7165;52.388;4.928;2023-06-14T15:48:35;37.30;57.90